Time;durP1;ratioP1;P1;durP2;ratioP2;P2;SDS_P1;SDS_P2;PMS_P1;PMS_P2;Temp;Humidity;BMP_temperature;BMP_pressure;BME280_temperature;BME280_humidity;BME280_pressure;Samples;Min_cycle;Max_cycle;Signal;HPM_P1;HPM_P2
2022/11/02 00:00:37;;;;;;;31.57;14.03;;;;;;;4.88;74.50;99396.25;1596588;89;21159;-75
2022/11/02 00:03:07;;;;;;;43.08;16.10;;;;;;;4.77;74.80;99395.50;1597238;89;21400;-75
2022/11/02 00:05:38;;;;;;;32.25;14.10;;;;;;;4.77;74.80;99395.50;1619972;87;20981;-76
2022/11/02 00:08:08;;;;;;;37.90;14.33;;;;;;;4.73;75.52;99400.42;1598200;88;21132;-75
2022/11/02 00:10:42;;;;;;;30.50;14.15;;;;;;;4.63;76.06;99400.73;1573947;88;21069;-74
2022/11/02 00:13:11;;;;;;;39.75;16.50;;;;;;;4.55;76.34;99391.84;1596040;89;21552;-74
2022/11/02 00:15:41;;;;;;;36.08;15.13;;;;;;;4.46;76.71;99386.72;1593770;89;21037;-76
2022/11/02 00:18:12;;;;;;;36.50;15.58;;;;;;;4.44;77.24;99391.63;1606272;88;21085;-73
2022/11/02 00:20:41;;;;;;;35.88;14.98;;;;;;;4.37;77.86;99395.19;1625775;87;20935;-74
2022/11/02 00:23:12;;;;;;;33.78;14.43;;;;;;;4.28;78.73;99391.41;1630720;87;21169;-75
2022/11/02 00:25:46;;;;;;;36.15;14.75;;;;;;;4.20;79.21;99388.73;1633699;86;20999;-75
2022/11/02 00:28:16;;;;;;;38.40;13.88;;;;;;;4.09;79.69;99387.68;1631871;87;21070;-75
2022/11/02 00:30:44;;;;;;;33.10;13.50;;;;;;;3.88;81.56;99386.95;1632099;87;21616;-75
2022/11/02 00:33:19;;;;;;;34.67;14.85;;;;;;;3.88;81.56;99386.95;1627281;87;21149;-73
2022/11/02 00:35:51;;;;;;;30.57;14.20;;;;;;;3.71;82.49;99381.83;1588420;89;21318;-73
2022/11/02 00:38:25;;;;;;;37.73;14.38;;;;;;;3.71;82.49;99381.83;1613698;88;21090;-73
2022/11/02 00:40:53;;;;;;;31.17;15.05;;;;;;;3.62;83.07;99382.11;1630346;86;21106;-73
2022/11/02 00:43:26;;;;;;;37.25;14.53;;;;;;;3.53;83.61;99381.86;1613845;88;21123;-73
2022/11/02 00:45:54;;;;;;;37.93;14.63;;;;;;;3.46;84.54;99381.89;1611291;87;21082;-73
2022/11/02 00:48:21;;;;;;;36.88;14.80;;;;;;;3.39;84.96;99380.81;1627819;87;21163;-73
2022/11/02 00:50:53;;;;;;;28.15;13.55;;;;;;;3.31;85.46;99378.10;1627110;87;21073;-72
2022/11/02 00:53:27;;;;;;;32.67;14.15;;;;;;;3.27;86.18;99374.84;1609704;87;21117;-72
2022/11/02 00:55:59;;;;;;;36.75;15.40;;;;;;;3.20;86.63;99369.69;1635758;87;21625;-72
2022/11/02 00:58:29;;;;;;;38.98;15.53;;;;;;;3.14;86.92;99373.48;1623452;87;21219;-73
2022/11/02 01:01:07;;;;;;;33.73;14.25;;;;;;;3.08;87.53;99369.69;1579207;89;21665;-73
2022/11/02 01:03:41;;;;;;;31.02;13.40;;;;;;;3.02;88.16;99367.52;1599060;89;20979;-72
2022/11/02 01:06:14;;;;;;;41.30;14.85;;;;;;;2.97;88.62;99371.58;1601018;88;21051;-73
2022/11/02 01:08:50;;;;;;;41.53;14.95;;;;;;;2.92;89.03;99366.15;1613349;87;21133;-72
2022/11/02 01:11:22;;;;;;;36.40;16.20;;;;;;;2.88;89.33;99358.31;1625481;87;21050;-73
2022/11/02 01:13:55;;;;;;;42.13;16.37;;;;;;;2.79;89.55;99358.03;1626746;87;22061;-73
2022/11/02 01:16:25;;;;;;;37.55;15.75;;;;;;;2.73;90.14;99357.75;1589094;88;21544;-73
2022/11/02 01:19:01;;;;;;;39.48;15.98;;;;;;;2.68;90.79;99358.28;1584365;89;21086;-73
2022/11/02 01:21:33;;;;;;;42.85;16.73;;;;;;;2.64;91.20;99354.75;1607931;88;20983;-73
2022/11/02 01:24:10;;;;;;;40.05;16.77;;;;;;;2.59;91.70;99350.67;1611158;88;21011;-73
2022/11/02 01:26:46;;;;;;;36.25;16.35;;;;;;;2.57;92.05;99356.09;1614676;88;20950;-72
2022/11/02 01:29:20;;;;;;;37.10;15.72;;;;;;;2.52;92.26;99357.44;1585777;89;20884;-71
2022/11/02 01:31:52;;;;;;;41.50;17.27;;;;;;;2.46;92.59;99351.19;1582078;90;20993;-73
2022/11/02 01:34:32;;;;;;;41.42;16.62;;;;;;;2.40;92.87;99354.96;1560104;90;21717;-73
2022/11/02 01:37:02;;;;;;;36.20;16.30;;;;;;;2.35;93.38;99355.48;1581915;90;21483;-73
2022/11/02 01:39:30;;;;;;;44.23;16.32;;;;;;;2.30;94.07;99342.77;1584270;89;21309;-74
2022/11/02 01:42:00;;;;;;;43.58;17.73;;;;;;;2.28;94.61;99351.70;1583711;87;20944;-73
2022/11/02 01:44:34;;;;;;;41.92;17.17;;;;;;;2.24;94.94;99337.87;1590931;88;20987;-71
2022/11/02 01:47:29;;;;;;;44.38;18.07;;;;;;;2.23;95.18;99342.20;1589666;89;21708;-72
2022/11/02 01:50:05;;;;;;;45.65;17.25;;;;;;;2.21;95.58;99340.30;1561268;90;21139;-71
2022/11/02 01:52:36;;;;;;;51.13;18.85;;;;;;;2.18;95.93;99339.48;1596401;88;21188;-72
2022/11/02 01:55:15;;;;;;;44.88;17.37;;;;;;;2.13;96.27;99343.52;1597008;88;21022;-72
2022/11/02 01:57:57;;;;;;;53.60;19.10;;;;;;;2.09;96.87;99338.36;1613249;87;21125;-73
2022/11/02 02:00:32;;;;;;;60.45;20.95;;;;;;;2.08;97.10;99342.15;1605696;88;21544;-72
2022/11/02 02:03:15;;;;;;;52.90;19.70;;;;;;;2.04;97.17;99340.51;1595529;89;20958;-72
2022/11/02 02:05:46;;;;;;;55.90;19.80;;;;;;;2.01;97.38;99340.22;1596049;89;21264;-71
2022/11/02 02:08:17;;;;;;;62.78;22.50;;;;;;;1.98;97.88;99345.09;1596176;90;20981;-72
2022/11/02 02:10:56;;;;;;;54.70;21.00;;;;;;;1.97;98.04;99341.29;1595512;88;20969;-71
2022/11/02 02:13:28;;;;;;;55.43;21.57;;;;;;;1.93;98.24;99340.19;1579828;90;21025;-71
2022/11/02 02:16:10;;;;;;;57.50;21.17;;;;;;;1.91;98.58;99339.64;1590650;89;21008;-72
2022/11/02 02:18:53;;;;;;;64.80;23.70;;;;;;;1.88;98.85;99336.92;1585181;88;21296;-73
2022/11/02 02:21:47;;;;;;;59.67;21.27;;;;;;;1.87;99.06;99343.41;1606900;89;22754;-72
2022/11/02 02:24:46;;;;;;;66.72;23.00;;;;;;;1.85;99.27;99342.86;1587160;88;21532;-72
2022/11/02 02:27:52;;;;;;;70.47;23.10;;;;;;;1.82;99.31;99324.98;1608791;89;20993;-73
2022/11/02 02:30:27;;;;;;;50.20;20.52;;;;;;;1.76;99.61;99333.61;1604616;89;21038;-73
2022/11/02 02:33:05;;;;;;;49.80;19.00;;;;;;;1.73;100.00;99327.94;1607612;88;21180;-73
2022/11/02 02:36:08;;;;;;;55.50;19.17;;;;;;;1.72;100.00;99333.08;1608773;89;21034;-73
2022/11/02 02:39:09;;;;;;;51.50;19.35;;;;;;;1.71;100.00;99328.74;1608334;88;21001;-73
2022/11/02 02:41:49;;;;;;;66.97;21.12;;;;;;;1.66;100.00;99330.88;1610044;87;21506;-72
2022/11/02 02:44:22;;;;;;;80.92;26.45;;;;;;;1.65;100.00;99327.91;1604554;87;21015;-72
2022/11/02 02:47:03;;;;;;;76.37;24.20;;;;;;;1.63;100.00;99328.70;1608442;88;21010;-72
2022/11/02 02:49:44;;;;;;;77.45;24.55;;;;;;;1.62;100.00;99327.07;1605997;88;20999;-72
2022/11/02 02:52:16;;;;;;;74.82;24.27;;;;;;;1.61;100.00;99324.09;1602598;88;21109;-72
2022/11/02 02:54:51;;;;;;;71.33;23.30;;;;;;;1.56;100.00;99322.70;1609303;88;21533;-73
2022/11/02 02:57:21;;;;;;;65.92;22.02;;;;;;;1.51;100.00;99315.37;1606543;88;21078;-72
2022/11/02 02:59:57;;;;;;;58.50;20.27;;;;;;;1.50;100.00;99309.69;1607457;88;21039;-72
2022/11/02 03:02:33;;;;;;;68.07;23.83;;;;;;;1.47;100.00;99314.27;1603931;88;21628;-73
2022/11/02 03:05:23;;;;;;;43.10;16.42;;;;;;;1.46;100.00;99315.88;1615266;88;21482;-73
2022/11/02 03:07:55;;;;;;;48.45;18.92;;;;;;;1.43;100.00;99319.11;1619981;87;21041;-72
2022/11/02 03:10:32;;;;;;;50.92;18.73;;;;;;;1.38;100.00;99315.84;1596550;89;21516;-72
2022/11/02 03:13:36;;;;;;;45.63;18.37;;;;;;;1.33;100.00;99315.27;1595846;88;22021;-72
2022/11/02 03:16:20;;;;;;;48.70;17.67;;;;;;;1.30;100.00;99310.38;1596332;89;21528;-72
2022/11/02 03:19:05;;;;;;;47.30;16.77;;;;;;;1.30;100.00;99313.08;1595105;89;21503;-72
2022/11/02 03:21:40;;;;;;;40.58;16.55;;;;;;;1.30;100.00;99312.27;1593745;88;20981;-72
2022/11/02 03:24:42;;;;;;;46.63;16.67;;;;;;;1.28;100.00;99313.06;1612395;87;20988;-72
2022/11/02 03:27:23;;;;;;;35.73;15.27;;;;;;;1.25;100.00;99314.40;1608818;86;21130;-73
2022/11/02 03:30:08;;;;;;;35.23;15.15;;;;;;;1.22;100.00;99317.63;1610233;87;21657;-74
2022/11/02 03:33:03;;;;;;;39.90;15.63;;;;;;;1.19;100.00;99318.68;1587783;88;21082;-72
2022/11/02 03:35:42;;;;;;;41.85;16.10;;;;;;;1.18;100.00;99317.87;1604827;88;21038;-73
2022/11/02 03:38:31;;;;;;;39.55;15.35;;;;;;;1.14;100.00;99314.08;1627310;87;20919;-73
2022/11/02 03:41:00;;;;;;;42.05;15.72;;;;;;;1.11;100.00;99306.48;1629287;86;20980;-73
2022/11/02 03:43:29;;;;;;;39.03;14.85;;;;;;;1.08;100.00;99307.01;1629723;87;20967;-73
2022/11/02 03:46:02;;;;;;;37.67;15.70;;;;;;;1.06;100.00;99310.51;1629552;87;21013;-78
2022/11/02 03:48:35;;;;;;;33.75;15.35;;;;;;;1.05;100.00;99303.47;1612045;88;21083;-72
2022/11/02 03:51:05;;;;;;;41.60;15.38;;;;;;;1.03;100.00;99302.91;1602236;87;21140;-75
2022/11/02 03:53:56;;;;;;;37.30;15.80;;;;;;;1.01;100.00;99301.55;1595844;88;21012;-73
2022/11/02 03:56:32;;;;;;;36.08;15.53;;;;;;;0.98;100.00;99297.47;1614284;88;20968;-72
2022/11/02 03:59:02;;;;;;;43.30;16.07;;;;;;;0.95;100.00;99293.39;1612672;88;20912;-73
2022/11/02 04:01:38;;;;;;;42.93;16.15;;;;;;;0.94;100.00;99293.66;1611704;88;20937;-81
2022/11/02 04:04:12;;;;;;;37.95;15.93;;;;;;;0.93;100.00;99298.25;1613854;88;20960;-80
2022/11/02 04:06:43;;;;;;;34.15;15.55;;;;;;;0.90;100.00;99285.25;1615225;88;21649;-81
2022/11/02 04:09:12;;;;;;;39.95;16.30;;;;;;;0.89;100.00;99290.38;1618745;87;20980;-73
2022/11/02 04:14:37;;;;;;;45.60;16.02;;;;;;;0.88;100.00;99290.09;1612880;88;20973;-76
2022/11/02 04:20:08;;;;;;;42.60;16.57;;;;;;;0.86;100.00;99300.89;1616896;88;21662;-73
2022/11/02 04:25:26;;;;;;;44.65;17.60;;;;;;;0.84;100.00;99293.58;1610407;88;21500;-73
2022/11/02 04:28:13;;;;;;;42.53;18.87;;;;;;;0.80;100.00;99290.58;1609647;88;21468;-79
2022/11/02 04:30:43;;;;;;;52.43;16.40;;;;;;;0.77;100.00;99292.98;1611229;88;22226;-75
2022/11/02 04:33:33;;;;;;;41.55;17.15;;;;;;;0.75;100.00;99288.36;1608900;87;21818;-83
2022/11/02 04:36:11;;;;;;;44.33;17.67;;;;;;;0.74;100.00;99292.14;1617051;88;20875;-70
2022/11/02 04:38:40;;;;;;;49.30;19.05;;;;;;;0.70;100.00;99289.67;1614490;88;20973;-80
2022/11/02 04:43:59;;;;;;;43.35;16.62;;;;;;;0.68;100.00;99293.16;1609915;88;21116;-78
2022/11/02 04:46:39;;;;;;;49.95;19.02;;;;;;;0.65;100.00;99294.50;1608304;88;21476;-77
2022/11/02 04:49:06;;;;;;;54.20;18.75;;;;;;;0.60;100.00;99293.91;1609104;88;21589;-73
2022/11/02 04:51:51;;;;;;;45.05;17.45;;;;;;;0.59;100.00;99294.98;1610196;87;21045;-75
2022/11/02 04:54:15;;;;;;;51.18;19.25;;;;;;;0.58;100.00;99289.84;1612747;87;21092;-75
2022/11/02 04:56:50;;;;;;;50.70;19.77;;;;;;;0.58;100.00;99286.60;1613764;87;21009;-73
2022/11/02 04:59:19;;;;;;;51.68;20.10;;;;;;;0.58;100.00;99286.60;1612952;88;21761;-71
2022/11/02 05:01:50;;;;;;;51.77;19.27;;;;;;;0.57;100.00;99286.35;1617093;87;21317;-73
2022/11/02 05:04:24;;;;;;;46.55;18.17;;;;;;;0.56;100.00;99292.83;1611913;88;21081;-73
2022/11/02 05:06:59;;;;;;;57.40;19.87;;;;;;;0.57;100.00;99293.64;1614316;88;20985;-72
2022/11/02 05:09:32;;;;;;;54.90;19.57;;;;;;;0.55;100.00;99287.14;1616592;87;20961;-71
2022/11/02 05:12:04;;;;;;;53.78;20.25;;;;;;;0.55;100.00;99284.98;1616171;88;21159;-73
2022/11/02 05:14:36;;;;;;;53.78;19.80;;;;;;;0.56;100.00;99286.08;1616996;88;21436;-72
2022/11/02 05:17:07;;;;;;;54.40;18.98;;;;;;;0.60;100.00;99280.94;1610753;87;20969;-72
2022/11/02 05:19:37;;;;;;;49.48;20.40;;;;;;;0.64;100.00;99276.66;1610707;88;21073;-75
2022/11/02 05:22:08;;;;;;;44.18;18.15;;;;;;;0.71;100.00;99279.14;1595110;88;21016;-69
2022/11/02 05:24:39;;;;;;;47.50;18.87;;;;;;;0.78;100.00;99286.50;1596294;88;21065;-72
2022/11/02 05:27:15;;;;;;;45.33;19.45;;;;;;;0.85;100.00;99293.86;1616755;88;20954;-74
2022/11/02 05:29:43;;;;;;;48.68;19.15;;;;;;;0.90;100.00;99296.59;1611966;87;21608;-74
2022/11/02 05:32:14;;;;;;;54.58;21.70;;;;;;;0.96;100.00;99309.89;1611770;88;21618;-72
2022/11/02 05:34:47;;;;;;;57.60;20.43;;;;;;;1.04;100.00;99305.90;1610652;88;21136;-75
2022/11/02 05:37:16;;;;;;;50.10;20.72;;;;;;;1.13;100.00;99308.94;1612266;88;21572;-78
2022/11/02 05:39:51;;;;;;;54.90;20.95;;;;;;;1.23;100.00;99301.67;1614709;88;21020;-73
2022/11/02 05:42:30;;;;;;;46.30;20.95;;;;;;;1.37;100.00;99308.80;1596201;88;20965;-70
2022/11/02 05:45:01;;;;;;;52.83;20.08;;;;;;;1.51;100.00;99295.09;1608777;88;20957;-68
2022/11/02 05:47:38;;;;;;;51.58;21.45;;;;;;;1.63;100.00;99297.05;1599984;88;20938;-71
2022/11/02 05:50:11;;;;;;;58.28;20.15;;;;;;;1.76;100.00;99293.02;1597450;88;21485;-71
2022/11/02 05:52:48;;;;;;;45.50;19.27;;;;;;;1.90;100.00;99296.87;1602430;87;21076;-70
2022/11/02 05:55:10;;;;;;;46.88;19.45;;;;;;;2.02;100.00;99294.47;1603146;87;21162;-69
2022/11/02 05:57:38;;;;;;;47.23;20.05;;;;;;;2.13;100.00;99296.95;1569733;88;21121;-69
2022/11/02 06:00:15;;;;;;;51.45;20.62;;;;;;;2.25;100.00;99289.40;1608711;88;21722;-69
2022/11/02 06:02:45;;;;;;;43.83;20.25;;;;;;;2.39;100.00;99292.92;1568772;89;21207;-69
2022/11/02 06:05:17;;;;;;;47.50;19.87;;;;;;;2.56;100.00;99289.42;1584724;89;20967;-72
2022/11/02 06:07:47;;;;;;;53.28;21.45;;;;;;;2.72;100.00;99289.71;1573962;90;21084;-71
2022/11/02 06:10:18;;;;;;;42.40;18.62;;;;;;;2.96;100.00;99290.77;1580557;89;21067;-69
2022/11/02 06:12:49;;;;;;;41.10;17.62;;;;;;;3.26;100.00;99293.19;1585051;89;21515;-70
2022/11/02 06:15:19;;;;;;;50.35;19.55;;;;;;;3.58;100.00;99294.17;1562239;89;21690;-69
2022/11/02 06:17:47;;;;;;;44.53;20.05;;;;;;;4.03;100.00;99284.23;1584597;90;20981;-75
2022/11/02 06:20:17;;;;;;;46.55;18.75;;;;;;;4.49;100.00;99293.73;1564064;89;21582;-74
2022/11/02 06:22:50;;;;;;;47.62;20.15;;;;;;;4.79;100.00;99299.48;1586024;90;21114;-75
2022/11/02 06:25:18;;;;;;;49.42;19.82;;;;;;;4.92;100.00;99301.55;1586539;89;21083;-75
2022/11/02 06:27:57;;;;;;;41.08;18.42;;;;;;;5.00;97.93;99300.69;1580728;89;21293;-74
2022/11/02 06:30:31;;;;;;;55.20;18.15;;;;;;;5.08;97.98;99298.71;1586656;90;21047;-75
2022/11/02 06:33:02;;;;;;;39.95;18.82;;;;;;;5.24;95.88;99307.78;1582739;90;20951;-75
2022/11/02 06:35:34;;;;;;;46.18;19.82;;;;;;;5.39;95.31;99310.10;1559609;89;20991;-74
2022/11/02 06:38:03;;;;;;;47.90;20.62;;;;;;;5.59;95.04;99312.08;1593918;89;21409;-74
2022/11/02 06:40:38;;;;;;;51.73;21.02;;;;;;;5.82;93.73;99315.07;1589693;88;21666;-74
2022/11/02 06:43:13;;;;;;;52.93;21.50;;;;;;;6.06;92.19;99314.54;1586161;90;21040;-75
2022/11/02 06:45:51;;;;;;;45.33;18.25;;;;;;;6.29;91.09;99314.25;1590980;88;21045;-74
2022/11/02 06:48:16;;;;;;;34.10;16.60;;;;;;;6.51;90.64;99324.01;1616394;87;21643;-76
2022/11/02 06:50:44;;;;;;;29.18;14.35;;;;;;;6.76;89.50;99317.92;1612475;87;21657;-74
2022/11/02 06:53:19;;;;;;;37.40;16.07;;;;;;;6.98;87.81;99324.92;1563150;89;21100;-74
2022/11/02 06:55:51;;;;;;;;;;;;;;;7.13;87.00;99321.95;1614849;88;21077;-74
2022/11/02 06:58:23;;;;;;;32.20;13.72;;;;;;;7.22;85.59;99318.80;1609046;87;20200;-75
2022/11/02 07:00:57;;;;;;;36.42;16.45;;;;;;;7.38;85.34;99315.80;1578723;88;21090;-74
2022/11/02 07:03:31;;;;;;;34.67;16.00;;;;;;;7.53;85.63;99306.75;1607451;88;21143;-75
2022/11/02 07:05:59;;;;;;;29.80;15.70;;;;;;;7.70;84.83;99308.09;1606629;87;21292;-72
2022/11/02 07:08:30;;;;;;;38.48;15.60;;;;;;;7.90;84.66;99311.23;1606989;88;20930;-71
2022/11/02 07:10:57;;;;;;;33.15;15.98;;;;;;;8.21;83.01;99314.70;1602077;88;21036;-71
2022/11/02 07:13:23;;;;;;;32.05;14.53;;;;;;;8.52;84.79;99317.06;1599899;87;21083;-72
2022/11/02 07:15:53;;;;;;;32.35;15.90;;;;;;;8.80;80.42;99315.59;1591919;87;21264;-71
2022/11/02 07:18:23;;;;;;;30.70;15.68;;;;;;;8.96;79.53;99316.03;1576509;89;39433;-73
2022/11/02 07:20:50;;;;;;;32.78;15.78;;;;;;;9.07;78.07;99322.89;1581921;88;20993;-71
2022/11/02 07:23:22;;;;;;;31.97;15.75;;;;;;;9.18;77.44;99316.05;1573637;89;21077;-73
2022/11/02 07:25:50;;;;;;;32.83;15.90;;;;;;;9.18;77.28;99322.33;1588191;88;20989;-71
2022/11/02 07:28:17;;;;;;;28.40;14.43;;;;;;;9.30;78.19;99323.11;1617239;87;20978;-77
2022/11/02 07:31:09;;;;;;;37.25;16.67;;;;;;;9.55;77.40;99316.16;1619933;86;21126;-74
2022/11/02 07:33:36;;;;;;;34.95;16.37;;;;;;;9.88;76.35;99317.98;1622484;85;20987;-75
2022/11/02 07:36:09;;;;;;;36.45;17.70;;;;;;;10.07;73.90;99315.80;1640132;87;20865;-72
2022/11/02 07:38:36;;;;;;;33.88;15.23;;;;;;;10.14;73.37;99316.72;1625518;87;21047;-77
2022/11/02 07:41:08;;;;;;;34.05;15.48;;;;;;;10.25;73.49;99316.13;1621932;87;21021;-74
2022/11/02 07:43:38;;;;;;;34.20;16.77;;;;;;;10.51;72.22;99317.53;1633090;85;21027;-74
2022/11/02 07:46:08;;;;;;;31.02;15.53;;;;;;;10.74;72.14;99315.47;1629066;86;20990;-73
2022/11/02 07:48:40;;;;;;;32.88;15.10;;;;;;;11.03;71.19;99314.79;1629967;86;21510;-75
2022/11/02 07:51:10;;;;;;;29.52;14.90;;;;;;;11.18;70.49;99315.67;1656666;84;20992;-73
2022/11/02 07:53:37;;;;;;;30.17;15.35;;;;;;;11.46;68.59;99320.23;1666058;84;20967;-71
2022/11/02 07:56:07;;;;;;;34.25;15.80;;;;;;;11.58;67.34;99315.41;1611469;86;21051;-77
2022/11/02 07:58:33;;;;;;;32.58;16.80;;;;;;;11.57;67.31;99310.47;1580989;89;21035;-72
2022/11/02 08:01:02;;;;;;;36.50;17.10;;;;;;;11.67;68.09;99314.81;1608344;87;21083;-76
2022/11/02 08:03:31;;;;;;;36.05;20.82;;;;;;;11.88;67.14;99309.44;1653265;86;20990;-75
2022/11/02 08:06:02;;;;;;;38.17;16.23;;;;;;;12.09;66.52;99310.31;1653710;86;21191;-72
2022/11/02 08:08:31;;;;;;;35.30;17.45;;;;;;;12.25;65.19;99299.52;1645965;86;21068;-76
2022/11/02 08:11:07;;;;;;;31.20;16.45;;;;;;;12.41;64.95;99298.38;1654017;85;21050;-75
2022/11/02 08:13:37;;;;;;;32.60;16.15;;;;;;;12.71;62.42;99300.52;1676614;85;20990;-77
2022/11/02 08:16:09;;;;;;;33.50;15.72;;;;;;;12.75;62.51;99307.74;1674495;84;21492;-84
2022/11/02 08:18:41;;;;;;;31.02;16.10;;;;;;;12.98;63.24;99306.03;1673961;84;21534;-87
2022/11/02 08:21:10;;;;;;;36.33;17.55;;;;;;;13.45;62.42;99302.42;1674312;84;21203;-83
2022/11/02 08:23:49;;;;;;;34.33;17.45;;;;;;;13.85;60.07;99302.63;1688162;83;20860;-72
2022/11/02 08:26:23;;;;;;;38.58;16.67;;;;;;;13.90;59.82;99296.86;1663174;85;21519;-71
2022/11/02 08:28:51;;;;;;;31.87;16.55;;;;;;;13.78;58.75;99301.81;1690439;84;21130;-79
2022/11/02 08:31:17;;;;;;;29.98;16.07;;;;;;;13.83;58.67;99304.92;1684398;84;20952;-74
2022/11/02 08:33:52;;;;;;;30.15;16.17;;;;;;;13.84;58.08;99293.55;1682842;84;21111;-81
2022/11/02 08:36:26;;;;;;;33.18;17.37;;;;;;;13.97;58.45;99297.09;1641200;84;20999;-75
2022/11/02 08:39:00;;;;;;;32.80;15.10;;;;;;;14.29;58.40;99299.52;1591028;87;21550;-75
2022/11/02 08:41:31;;;;;;;30.95;15.08;;;;;;;14.72;57.46;99296.69;1688221;83;21113;-76
2022/11/02 08:44:04;;;;;;;25.92;14.25;;;;;;;15.03;55.23;99289.89;1689621;84;21083;-75
2022/11/02 08:46:33;;;;;;;24.45;14.43;;;;;;;15.00;55.26;99284.30;1677285;84;21271;-82
2022/11/02 08:49:06;;;;;;;31.02;15.75;;;;;;;15.03;56.27;99280.80;1676519;83;21562;-75
2022/11/02 08:51:47;;;;;;;29.60;15.32;;;;;;;15.27;54.44;99290.95;1675459;83;21053;-77
2022/11/02 08:54:17;;;;;;;30.10;15.45;;;;;;;15.39;54.86;99275.68;1695579;82;20943;-72
2022/11/02 08:56:55;;;;;;;26.33;14.47;;;;;;;15.66;52.53;99274.83;1671409;84;20939;-73
2022/11/02 08:59:25;;;;;;;28.25;15.45;;;;;;;15.72;51.62;99272.60;1643266;85;20943;-74
2022/11/02 09:01:56;;;;;;;29.45;16.70;;;;;;;15.63;52.54;99278.89;1660186;84;21024;-74
2022/11/02 09:04:28;;;;;;;28.60;15.40;;;;;;;15.71;52.51;99272.38;1652881;86;20978;-73
2022/11/02 09:06:58;;;;;;;28.40;15.68;;;;;;;15.98;51.92;99263.77;1650698;84;21110;-73
2022/11/02 09:09:31;;;;;;;27.05;14.87;;;;;;;16.22;51.52;99270.45;1654432;85;21016;-73
2022/11/02 09:12:07;;;;;;;36.65;13.72;;;;;;;16.61;50.63;99267.20;1644416;86;21001;-73
2022/11/02 09:14:40;;;;;;;77.92;21.80;;;;;;;17.19;50.16;99267.80;1683564;83;21095;-73
2022/11/02 09:17:08;;;;;;;290.40;52.43;;;;;;;17.76;47.89;99269.67;1666373;84;20887;-75
2022/11/02 09:19:35;;;;;;;337.17;57.55;;;;;;;17.91;44.31;99270.11;1684386;84;21069;-74
2022/11/02 09:22:11;;;;;;;45.92;17.30;;;;;;;17.96;44.44;99266.22;1686434;84;21427;-73
2022/11/02 09:24:39;;;;;;;23.57;12.60;;;;;;;17.66;43.19;99272.48;1673323;83;20899;-73
2022/11/02 09:27:09;;;;;;;33.02;14.47;;;;;;;17.03;44.24;99278.98;1661194;84;21687;-74
2022/11/02 09:29:41;;;;;;;42.15;17.05;;;;;;;16.48;45.71;99273.44;1631591;85;20904;-76
2022/11/02 09:32:12;;;;;;;44.63;17.50;;;;;;;16.33;47.31;99278.44;1685950;83;21029;-75
2022/11/02 09:34:40;;;;;;;28.07;15.75;;;;;;;16.57;47.54;99271.05;1674458;84;21443;-74
2022/11/02 09:37:17;;;;;;;28.42;14.33;;;;;;;16.89;46.93;99268.39;1635346;86;21159;-87
2022/11/02 09:39:45;;;;;;;23.07;13.28;;;;;;;17.16;46.34;99267.38;1648328;84;21628;-81
2022/11/02 09:42:40;;;;;;;26.27;14.18;;;;;;;17.41;45.65;99260.08;1633246;86;21039;-77
2022/11/02 09:45:16;;;;;;;25.60;13.15;;;;;;;17.34;45.88;99271.05;1631170;87;20915;-73
2022/11/02 09:48:01;;;;;;;25.35;14.10;;;;;;;17.40;45.28;99273.16;1620493;86;21027;-77
2022/11/02 09:50:54;;;;;;;24.50;13.48;;;;;;;17.53;46.19;99271.02;1680477;84;21174;-74
2022/11/02 09:53:35;;;;;;;29.75;14.90;;;;;;;17.67;45.96;99265.75;1676720;84;20914;-76
2022/11/02 09:56:01;;;;;;;23.25;12.28;;;;;;;17.81;45.11;99272.14;1626175;87;21023;-75
2022/11/02 09:58:36;;;;;;;23.62;13.15;;;;;;;17.77;44.08;99266.52;1645354;85;20892;-74
2022/11/02 10:01:14;;;;;;;24.47;12.50;;;;;;;17.68;43.88;99274.30;1673589;84;20938;-73
2022/11/02 10:04:15;;;;;;;24.67;13.38;;;;;;;17.48;44.17;99266.57;1673408;85;21162;-75
2022/11/02 10:06:45;;;;;;;23.47;12.00;;;;;;;17.52;44.99;99263.86;1673603;85;21049;-75
2022/11/02 10:09:35;;;;;;;23.15;12.20;;;;;;;17.83;43.79;99264.83;1658889;83;21043;-77
2022/11/02 10:12:17;;;;;;;21.95;11.68;;;;;;;17.80;43.55;99269.15;1676988;83;21510;-70
2022/11/02 10:15:41;;;;;;;23.50;12.70;;;;;;;17.71;44.42;99268.00;1668817;84;20971;-71
2022/11/02 10:18:12;;;;;;;20.43;10.55;;;;;;;17.94;43.64;99263.00;1688376;84;21158;-71
2022/11/02 10:20:42;;;;;;;;;;;;;;;18.07;43.82;99259.66;1677529;83;21185;-73
2022/11/02 10:23:26;;;;;;;22.05;11.00;;;;;;;18.27;43.28;99256.20;1678562;84;20174;-71
2022/11/02 10:25:59;;;;;;;23.77;12.30;;;;;;;18.30;43.56;99258.82;1684121;82;21512;-73
2022/11/02 10:28:36;;;;;;;20.10;11.40;;;;;;;18.39;43.07;99262.13;1667653;83;21124;-73
2022/11/02 10:31:02;;;;;;;25.05;12.15;;;;;;;18.49;42.15;99270.59;1684092;83;21212;-75
2022/11/02 10:33:36;;;;;;;22.58;11.28;;;;;;;18.40;41.88;99259.56;1682288;82;21145;-75
2022/11/02 10:36:32;;;;;;;22.32;11.50;;;;;;;18.19;42.78;99271.75;1684696;84;21099;-75
2022/11/02 10:39:31;;;;;;;28.83;10.65;;;;;;;18.06;42.46;99265.00;1682986;81;21055;-73
2022/11/02 10:42:45;;;;;;;23.07;10.95;;;;;;;17.66;42.20;99269.70;1643230;84;20971;-75
2022/11/02 10:45:50;;;;;;;21.68;10.45;;;;;;;17.23;43.16;99268.09;1685794;84;21536;-74
2022/11/02 10:48:29;;;;;;;20.23;11.05;;;;;;;17.01;43.53;99274.38;1665081;84;21027;-73
2022/11/02 10:51:11;;;;;;;19.40;10.93;;;;;;;16.73;44.83;99264.91;1693399;83;21046;-72
2022/11/02 10:53:47;;;;;;;26.12;11.78;;;;;;;16.61;45.46;99263.63;1665590;84;20924;-77
2022/11/02 10:56:31;;;;;;;24.12;13.10;;;;;;;16.43;46.22;99260.45;1680416;83;21082;-77
2022/11/02 10:59:12;;;;;;;26.00;12.90;;;;;;;16.28;46.71;99259.32;1692156;83;21073;-75
2022/11/02 11:01:40;;;;;;;27.13;12.30;;;;;;;16.27;46.79;99260.48;1656302;84;21037;-75
2022/11/02 11:04:26;;;;;;;20.02;11.30;;;;;;;16.17;46.75;99258.30;1604452;84;21109;-74
2022/11/02 11:06:54;;;;;;;23.10;11.48;;;;;;;15.95;47.00;99261.13;1677702;84;21015;-74
2022/11/02 11:09:29;;;;;;;21.65;11.38;;;;;;;15.62;48.05;99263.45;1657899;84;21073;-71
2022/11/02 11:12:08;;;;;;;20.30;10.98;;;;;;;15.38;48.80;99266.58;1672797;84;21261;-67
2022/11/02 11:14:57;;;;;;;22.45;11.50;;;;;;;15.11;49.23;99253.58;1655559;85;21600;-69
2022/11/02 11:17:28;;;;;;;20.02;12.20;;;;;;;14.77;50.46;99254.42;1609378;87;21036;-69
2022/11/02 11:20:05;;;;;;;21.85;12.05;;;;;;;14.56;51.53;99255.75;1658086;85;21061;-72
2022/11/02 11:22:39;;;;;;;31.02;12.95;;;;;;;14.36;51.89;99252.80;1612565;86;21581;-72
2022/11/02 11:25:26;;;;;;;23.75;13.00;;;;;;;14.27;52.44;99249.36;1660397;84;21164;-73
2022/11/02 11:28:00;;;;;;;29.18;13.00;;;;;;;14.31;52.67;99253.03;1661629;85;21587;-72
2022/11/02 11:30:40;;;;;;;25.97;13.08;;;;;;;14.38;53.25;99256.02;1623855;87;21078;-72
2022/11/02 11:33:11;;;;;;;23.75;12.05;;;;;;;14.73;52.89;99258.23;1620635;87;21083;-72
2022/11/02 11:35:42;;;;;;;29.77;13.03;;;;;;;14.97;51.76;99249.87;1641714;85;21074;-71
2022/11/02 11:38:22;;;;;;;23.50;12.68;;;;;;;15.14;51.46;99250.91;1619669;86;21830;-71
2022/11/02 11:40:56;;;;;;;;;;;;;;;15.33;51.25;99246.09;1626783;86;21029;-69
2022/11/02 11:43:33;;;;;;;21.10;11.60;;;;;;;15.41;50.99;99244.33;1621056;86;20212;-70
2022/11/02 11:46:04;;;;;;;21.23;12.68;;;;;;;15.45;50.74;99247.98;1631066;86;21093;-71
2022/11/02 11:48:50;;;;;;;28.32;13.38;;;;;;;15.33;50.63;99240.56;1657746;84;21061;-72
2022/11/02 11:51:42;;;;;;;26.70;13.38;;;;;;;15.02;51.26;99235.77;1659282;85;21654;-73
2022/11/02 11:54:30;;;;;;;27.17;12.37;;;;;;;14.72;51.85;99245.00;1656218;85;21099;-77
2022/11/02 11:57:28;;;;;;;31.57;15.75;;;;;;;14.41;53.03;99248.45;1661725;85;21118;-77
2022/11/02 12:00:00;;;;;;;30.80;15.43;;;;;;;14.11;53.87;99245.69;1666989;84;21167;-76
2022/11/02 12:02:37;;;;;;;25.75;13.53;;;;;;;13.85;54.57;99255.15;1690132;83;22290;-71
2022/11/02 12:05:19;;;;;;;30.40;13.32;;;;;;;13.67;55.17;99254.33;1691086;83;21197;-71
2022/11/02 12:08:24;;;;;;;24.85;12.18;;;;;;;13.50;55.72;99259.47;1696098;83;21099;-78